arxmliv
arxmliv build tool
 
KWARC group
LaTeXML
About
   
 

Detailed info

Back to Homepage

List of missing_macros

No. Date Filename num_warningnum_errornum_xmargok_xmargnum_xmathok_xmathMissing macros
68001 2013-03-17 21:19:47 /9509/astro-ph.9509043 090000[\affil, \mnras, \apj, \reference, {references}, \altaffiltext, \keywords, \altaffilmark]; 1 missing file[paspconf.sty].
68002 2013-03-17 21:19:24 /9509/astro-ph.9509005 3060000[\ftnote, \psfig].
68003 2013-03-17 21:19:21 /9509/ao-sci.9509001 950000[\Ddiv, \DP, \DD, \Dvect]; 1 missing file[Dmath.sty].
68004 2013-03-17 21:18:49 /9509/alg-geom.9509006 2110000[\eighttt].
68005 2013-03-17 21:18:10 /9508/solv-int.9508004 1010000[\CITE].
68006 2013-03-17 21:17:05 /9508/q-alg.9508009 9110000[\goth].
68007 2013-03-17 21:16:43 /9508/q-alg.9508012 94910000[\@esphack, \@bsphack, \if@nobreak, \draftnote].
68008 2013-03-17 21:15:51 /9508/q-alg.9508013 43150000[\@esphack, \@bsphack, \if@nobreak, \draftnote].
68009 2013-03-17 21:15:05 /9508/q-alg.9508004 2710000[\eightpoint].
68010 2013-03-17 21:14:38 /9508/q-alg.9508003 730000[\script, {CD}, \twoheadrightarrow].
68011 2013-03-17 21:13:51 /9508/nucl-th.9508041 120000[\abstracts, \fcaption].
68012 2013-03-17 21:13:31 /9508/nucl-th.9508025 040000[\if@floats].
68013 2013-03-17 21:11:59 /9508/nucl-th.9508011 1390000[\epsfbox, \epsfysize, \epsfxsize]; 1 missing file[menu95.cls].
68014 2013-03-17 21:11:33 /9508/mtrl-th.9508009 020000[{ack}, {frontmatter}].
68015 2013-03-17 21:11:16 /9508/math.9508220 23420000[\ifcommented].
68016 2013-03-17 21:11:16 /9508/math.9508222 4920000[\psfig]; 1 missing file[psfig].
68017 2013-03-17 21:11:03 /9508/math.9508216 850000[\examplename, \endcaption, \psfig, \botcaption]; 1 missing file[psfig.tex].
68018 2013-03-17 21:10:43 /1201/1201.3601 15380000[\address, \subjclass, \email, \lmcsheading, {desCription}, {iteMize}, \keywords]; 1 missing file[LMCS.cls].
68019 2013-03-17 21:10:16 /9508/mtrl-th.9508001 270000[{fixtable}]; 1 missing file[fixtab.sty].
68020 2013-03-17 21:08:47 /9508/math.9508212 1120000[\psfig]; 1 missing file[psfig].
68021 2013-03-17 21:08:32 /9508/math.9508215 730000[\endcaption, \captionwidth, \botcaption].
68022 2013-03-17 21:08:11 /9508/hep-th.9508178 3620000[Align, \+].
68023 2013-03-17 21:05:45 /9508/hep-th.9508156 630000[Align, \+, \columns].
68024 2013-03-17 21:02:41 /9508/hep-th.9508141 1710000[{centering}].
68025 2013-03-17 21:02:04 /9508/hep-th.9508117 2630000[\leftbracket, \eqlabeL, \writedef].
68026 2013-03-17 21:01:56 /9508/hep-th.9508128 210000[\columns].
68027 2013-03-17 20:59:58 /9508/hep-th.9508080 2950000[\dottedline, \spline, \arc, \dashline, \path].
68028 2013-03-17 20:59:08 /9508/hep-th.9508074 38590000[\Ythree, \N, \Xeight, \particlebackx, \photon, \particlebacky, \Xone, \SW, \SE, \Yeight, \E, \Xthree, \gluon, \fermion, \Xtwo, \particlefrontx, \particlefronty, \REG, \Ytwo, \drawline, \drawarrow, \NW, \ATTIP, \Yone, \NE, \W]; 1 missing file[FEYNMAN].
68029 2013-03-17 20:57:30 /9508/hep-th.9508072 4110000[\oddsidemargin].
68030 2013-03-17 20:57:10 /9508/hep-th.9508047 3910000[\theappendix].
68031 2013-03-17 20:56:54 /9508/hep-th.9508060 10110000[\@thanks, \@topnum, \@date, \@title].
68032 2013-03-17 20:54:16 /9508/hep-th.9508015 620000[{instit}]; 1 missing file[version2.sty].
68033 2013-03-17 20:53:20 /9508/hep-ph.9508409 19810000[\@cite].
68034 2013-03-17 20:53:20 /9508/hep-th.9508020 46120000[\@thanks].
68035 2013-03-17 20:53:19 /9508/hep-th.9508008 149520000[\theappendix].
68036 2013-03-17 20:52:19 /9508/hep-ph.9508415 153110000[\psfig]; 2 missing files[charm2000.sty, psfig].
68037 2013-03-17 20:52:19 /9508/hep-th.9508004 1110000[\bezier].
68038 2013-03-17 20:51:50 /9508/hep-ph.9508379 4010000[{centering}].
68039 2013-03-17 20:50:51 /9508/hep-ph.9508398 410000[\graphics].
68040 2013-03-17 20:50:30 /9508/hep-ph.9508401 040000[\equal, \ifthenelse, \epsfig, \psdraft].
68041 2013-03-17 20:49:51 /9508/hep-ph.9508397 5260000[\ArrowLine, \Text, \Photon, \SetScale, \epsfig, \DashLine].
68042 2013-03-17 20:48:57 /9508/hep-ph.9508377 4160000[\@open@row, \@thanks, \@topnum, \epsfile, \@date, \@title].
68043 2013-03-17 20:48:32 /9508/hep-ph.9508383 020000[\psfig]; 1 missing file[psfig.tex].
68044 2013-03-17 20:47:59 /9508/hep-ph.9508376 010000[\abstracts].
68045 2013-03-17 20:47:47 /9508/hep-ph.9508362 4440000[\psfig]; 1 missing file[psfig].
68046 2013-03-17 20:47:29 /9508/hep-ph.9508325 267120000[\PB, \PK, \PZz, \Pap, \Pq, \theappendix, \Pp, \Paq].
68047 2013-03-17 20:46:35 /9508/hep-ph.9508338 3820000[\psfig]; 1 missing file[psfig].
68048 2013-03-17 20:46:20 /9508/hep-ph.9508339 2020000[\psboxto]; 1 missing file[psbox].
68049 2013-03-17 20:46:20 /9508/hep-ph.9508346 610000[\theappendix].
68050 2013-03-17 20:46:12 /9508/hep-ph.9508342 620000[\gtrsim, \emet].
68051 2013-03-17 20:45:26 /9508/hep-ph.9508335 9510000[\rotate].
68052 2013-03-17 20:43:26 /9508/hep-ph.9508315 30140000[\gluon, \N, \REG, \drawline, \SW, \NW, \SE, \E, \gluonbackx, \NE, \FLIPPED, \W, \gluonbacky]; 1 missing file[FEYNMAN].
68053 2013-03-17 20:43:11 /9508/hep-ph.9508297 1020000[{instit}]; 1 missing file[version2.sty].
68054 2013-03-17 20:42:52 /9508/hep-ph.9508306 20610000[{centering}].
68055 2013-03-17 20:42:15 /9508/hep-ph.9508304 1520000[\psfig]; 1 missing file[psfig].
68056 2013-03-17 20:39:40 /9508/hep-ph.9508280 23290000[\@floatsfalse, Align, \@floatstrue, \firstfigfalse, \@tabarray, \delimiter, \firsttabfalse].
68057 2013-03-17 20:39:12 /9508/hep-ph.9508283 2720000[\psfig]; 1 missing file[psfig].
68058 2013-03-17 20:38:05 /9508/hep-ph.9508265 2440000[\displ@y].
68059 2013-03-17 20:25:46 /9508/hep-ph.9508223 610000[\@cite].
68060 2013-03-17 20:25:08 /9508/hep-ph.9508214 910000[{centering}].
68061 2013-03-17 20:23:40 /9508/hep-lat.9508015 020000[\epsfile]; 1 missing file[epsbox.sty].
68062 2013-03-17 20:23:36 /9508/hep-lat.9508016 1570000[{pf}, {ack}, \epsfig, {frontmatter}, \qed, {thm}].
68063 2013-03-17 20:21:44 /9508/hep-lat.9508007 210000[\theappendix].
68064 2013-03-17 20:21:41 /9508/hep-lat.9508009 210000[{centering}].
68065 2013-03-17 20:21:26 /9508/hep-ex.9508007 110000[\epsffileline].
68066 2013-03-17 20:21:21 /9508/hep-ex.9508013 1450000[{sideways}].
68067 2013-03-17 20:21:19 /9508/hep-ex.9508008 120000[\psfig]; 1 missing file[psfig].
68068 2013-03-17 20:20:19 /9508/hep-ex.9508004 3830000[\psfig]; 1 missing file[psfig].
68069 2013-03-17 20:20:15 /9508/gr-qc.9508063 1330000[\cvol, \cyear]; 1 missing file[fic.sty].
68070 2013-03-17 20:18:57 /9508/gr-qc.9508049 25910000[\theappendix].
68071 2013-03-17 20:16:59 /9508/gr-qc.9508023 23120000[\cite, \firstpageno, \endreferences, \oneandathirdspace, \refis, \beginparmode, \frac, \endit, \taghead, \refto, \tag]; 1 missing file[jnl].
68072 2013-03-17 20:15:43 /9508/gr-qc.9508019 6110000[\oddsidemargin].
68073 2013-03-17 20:14:38 /9508/dg-ga.9508005 10350000[{CD}, \normalshape, \centerdot].
68074 2013-03-17 20:13:51 /9508/gr-qc.9508009 6710000[\@magscale].
68075 2013-03-17 20:13:14 /9508/dg-ga.9508008 1130000[\put, \setquadratic, \setplotarea, \setlinear, \setdots, \arrow, \plot, \circulararc, \setcoordinatesystem, \beginpicture, \setdashes, \endpicture, \setsolid].
68076 2013-03-17 20:11:50 /9508/dg-ga.9508006 7210000[\subsetneq].
68077 2013-03-17 20:11:17 /9508/dg-ga.9508003 3220000[\theequation].
68078 2013-03-17 20:10:27 /9508/cond-mat.9508112 10220000[{instit}]; 1 missing file[version2.sty].
68079 2013-03-17 20:07:48 /9508/cond-mat.9508063 69170000[\Photon, \ArrowArcn, \Oval, \Curve, \Vertex, \Text, \SetScale, \DashLine, \Line, \ArrowArc, \ArrowLine, \GCirc, \DashCArc, \DashCurve, \LongArrow, \CArc]; 1 missing file[cheqno.sty].
68080 2013-03-17 20:04:19 /9508/astro-ph.9508126 130130000[\thechapter, \ssp, {copyrightpage}, {committee}, \dsp, \@currentID, {abstitle}, {signaturepage}].
68081 2013-03-17 20:02:57 /9508/cond-mat.9508020 850000[{instit}, \receipt]; 1 missing file[version2.sty].
68082 2013-03-17 20:02:43 /9508/cond-mat.9508024 2220000[\rotate]; 1 missing file[psfig.tex].
68083 2013-03-17 20:02:05 /9508/cond-mat.9508026 120000[\psfig]; 1 missing file[psfig].
68084 2013-03-17 20:02:03 /9508/cond-mat.9508008 1830000[\@whilenum, \do, \@pt].
68085 2013-03-17 20:01:31 /9508/comp-gas.9508001 510000[\theappendix].
68086 2013-03-17 20:01:08 /9508/cmp-lg.9508009 1140000[{examples}]; 1 missing file[examples.sty].
68087 2013-03-17 20:01:06 /9508/cmp-lg.9508011 2650000[\citeauthoryear, \shortcite, \psfig]; 2 missing files[psfig, ijcai95.sty].
68088 2013-03-17 20:00:51 /9508/cond-mat.9508002 420000[\setdec, \dec].
68089 2013-03-17 20:00:13 /9508/cmp-lg.9508002 12340000[\avm, Align, \citename, \shortexnt, \eenumsentence, \enumsentence, \shcite]; 1 missing file[pubsarticle.cls].
68090 2013-03-17 20:00:12 /9508/cmp-lg.9508001 28160000[\citeauthoryear, \@esphack, \@bsphack, \if@nobreak, \theexa\romannumeral\the\@exadepth]; 1 missing file[named.sty].
68091 2013-03-17 20:00:05 /9508/cmp-lg.9508006 6030000[\acitec, \acite]; 1 missing file[colon.sty].
68092 2013-03-17 19:59:46 /9508/astro-ph.9508151 010000[\ps@plain].
68093 2013-03-17 19:59:17 /9508/astro-ph.9508135 510000[\ps@plain].
68094 2013-03-17 19:59:14 /9508/astro-ph.9508132 1150000[\affil, \apj, \aj, \tablenotetext, \aaps, \tableline, \apjl, \aap, \apjs, \mnras, \plotone, \reference, {references}, \araa]; 1 missing file[paspconf.sty].
68095 2013-03-17 19:59:00 /9508/astro-ph.9508143 910000[\picplace].
68096 2013-03-17 19:59:00 /9508/astro-ph.9508147 310000[\picplace].
68097 2013-03-17 19:58:55 /9508/astro-ph.9508117 330000[Align, \+, \columns].
68098 2013-03-17 19:58:44 /9508/astro-ph.9508112 040000[\citeauthoryear, \institute, \runningtitle, {opening}].
68099 2013-03-17 19:58:43 /9508/astro-ph.9508121 3960000[\citeauthoryear, \institute, \runningtitle, {opening}].
68100 2013-03-17 19:58:37 /9508/astro-ph.9508124 780000[{keywords}, \epsfbox, \citename, \shortcite, \epsfxsize]; 1 missing file[MN.cls].
68101 2013-03-17 19:58:08 /9508/astro-ph.9508128 020000[\psfig]; 1 missing file[psfig.tex].
68102 2013-03-17 19:57:59 /9508/astro-ph.9508110 2730000[Align, \+, \columns].
68103 2013-03-17 19:57:56 /9508/astro-ph.9508103 170000[\citeauthoryear, \citeyear, \citeauthor, \psfig, \institute, \runningtitle, {opening}].
68104 2013-03-17 19:57:43 /9508/astro-ph.9508111 530000[Align, \+, \columns].
68105 2013-03-17 19:57:42 /9508/astro-ph.9508109 050000[\citeauthoryear, \citeyear, \citeauthor, \institute, {opening}].
68106 2013-03-17 19:57:34 /9508/astro-ph.9508092 120000[\psfigurepath]; 1 missing file[aipbook.sty].
68107 2013-03-17 19:57:26 /9508/astro-ph.9508091 120000[\psfigurepath]; 1 missing file[aipbook.sty].
68108 2013-03-17 19:57:18 /9508/astro-ph.9508098 160000[\subtitle, \institute, \epsffile, \runningtitle, {opening}, \epsfxsize].
68109 2013-03-17 19:57:15 /9508/astro-ph.9508084 830000[Align, \+, \columns].
68110 2013-03-17 19:56:51 /9508/astro-ph.9508053 010000[\emline].
68111 2013-03-17 19:56:45 /9508/astro-ph.9508016 21110000[\theappendix].
68112 2013-03-17 19:56:29 /9508/astro-ph.9508035 1430000[\psfigurepath, \psfig]; 1 missing file[psfig].
68113 2013-03-17 19:56:06 /9508/astro-ph.9508026 350000[\picplace]; 1 missing file[psfig].
68114 2013-03-17 19:55:46 /9508/astro-ph.9508027 1920000[\picplace]; 1 missing file[psfig].
68115 2013-03-17 19:55:45 /9508/astro-ph.9508023 020000[\epsffile, \epsfysize].
68116 2013-03-17 19:55:12 /9508/alg-geom.9508009 350000[\endCD, \CD, \E, \newmathalphabet].
68117 2013-03-17 19:54:34 /9507/solv-int.9507003 1910000[\shadowbox].
68118 2013-03-17 19:51:34 /9507/q-alg.9507027 1520000[Align, \+].
68119 2013-03-17 19:50:33 /9507/q-alg.9507030 2110000[\normalshape].
68120 2013-03-17 19:50:07 /9507/q-alg.9507033 1820000[\ltimes, \subsetneq].
68121 2013-03-17 19:49:35 /9507/q-alg.9507034 3520000[\pgerm, \@addfontinfo].
68122 2013-03-17 19:49:01 /9507/q-alg.9507019 40210000[\between, \restriction, {CD}, \varkappa, \newsymbol, \family, \shape].
68123 2013-03-17 19:48:26 /9507/q-alg.9507017 38200000[\Rsh, \twoheadrightarrow, \beth, \shape, \family, \between, {CD}, \vartriangle, \varnothing, \daleth, \restr, \newsymbol, \varkappa].
68124 2013-03-17 19:46:35 /9507/q-alg.9507018 1170000[{CD}, \varnothing, \newsymbol, \shape, \family].
68125 2013-03-17 19:46:12 /9507/q-alg.9507020 340000[\rest, \newsymbol, \shape, \family].
68126 2013-03-17 19:46:00 /9507/q-alg.9507023 910000[\normalshape].
68127 2013-03-17 19:45:47 /9507/q-alg.9507026 2020000[Align, \+].
68128 2013-03-17 19:45:37 /9507/q-alg.9507022 460000[\between, \varnothing, \restr, \newsymbol, \family, \shape].
68129 2013-03-17 19:44:29 /9507/q-alg.9507011 3350000[\captionwidth@, \endcaption, \botcaption].
68130 2013-03-17 19:44:14 /9507/q-alg.9507001 30660000[{definition}, {lemma}, {theorem}, \newtheorem, {proposition}].
68131 2013-03-17 19:44:06 /9507/q-alg.9507013 810000[\newtheorem].
68132 2013-03-17 19:42:28 /9507/q-alg.9507016 440000[\restr, \newsymbol, \family, \shape].
68133 2013-03-17 19:42:04 /9507/q-alg.9507002 27210000[\normalshape].
68134 2013-03-17 19:40:45 /9507/nucl-th.9507026 2020000[\setdec, \rotl].
68135 2013-03-17 19:40:22 /9507/nucl-th.9507031 2210000[\bi]; 1 missing file[ws-art.cls].
68136 2013-03-17 19:39:39 /9507/nucl-th.9507025 1820000[\psfig]; 1 missing file[psfig.tex].
68137 2013-03-17 19:38:05 /9507/nucl-th.9507001 2020000[\bi]; 1 missing file[ws-art.cls].
68138 2013-03-17 19:37:50 /9507/nucl-ex.9507002 1330000[\rightrightarrows, \rightleftarrows]; 1 missing file[amssymbols.sty].
68139 2013-03-17 19:37:48 /9507/math.9507225 1420000[\psfig]; 1 missing file[psfig].
68140 2013-03-17 19:37:29 /9507/hep-th.9507174 24530000[Align, \+, \columns].
68141 2013-03-17 19:36:56 /9507/math.9507214 2730000[{comment}].
68142 2013-03-17 19:36:48 /9507/math.9507207 3520000[\psfig]; 1 missing file[psfig].
68143 2013-03-17 19:35:12 /9507/math.9507204 030000[\title, \date, \author].
68144 2013-03-17 19:35:09 /9507/hep-th.9507153 4660000[\leftbracket, \wrlabeL, \writedef, \desired, \xzj, \cortwo].
68145 2013-03-17 19:35:04 /9507/hep-th.9507159 10380000[\@open@row, Align].
68146 2013-03-17 19:34:30 /9507/hep-th.9507151 640000[\fivesl, \FE, \fiveit].
68147 2013-03-17 19:32:48 /9507/hep-th.9507133 4120000[\psfig]; 1 missing file[psfig].
68148 2013-03-17 19:31:56 /9507/hep-th.9507120 1940000[\Text, \Vertex, \DashCArc, \GlueArc].
68149 2013-03-17 19:21:19 /9507/hep-th.9507060 3640000[\VOFFSET, \pagebottomfiller, \normaldisplayskip, \HOFFSET].
68150 2013-03-17 19:19:07 /9507/hep-th.9507051 3110000[\@ignoretrue].
68151 2013-03-17 19:18:29 /9507/hep-th.9507053 3720000[\psfig]; 1 missing file[psfig].
68152 2013-03-17 19:13:49 /9507/hep-th.9507019 1030000[Align, \+, \columns].
68153 2013-03-17 19:13:36 /9507/hep-th.9507022 4610000[\oddsidemargin].
68154 2013-03-17 19:12:38 /9507/hep-th.9507012 430000[\@thanks, \@topnum, \@maketitle].
68155 2013-03-17 19:10:16 /9507/hep-ph.9507454 1340000[\psfig]; 1 missing file[psfig.tex].
68156 2013-03-17 19:09:59 /9507/hep-ph.9507435 240000[\bi, \psfig]; 1 missing file[menu95.cls].
68157 2013-03-17 19:09:55 /9507/hep-ph.9507437 8620000[\psfig]; 1 missing file[psfig].
68158 2013-03-17 19:09:14 /9507/hep-ph.9507441 490000[\j@ur, \headskip, \frontpageskip, \titleparagraphs, \spacecheck, \iftwelv@, \sectionminspace].
68159 2013-03-17 19:09:07 /9507/hep-ph.9507424 710000[{centering}].
68160 2013-03-17 19:08:27 /9507/hep-ph.9507433 2130000[\resume, \affil, \fnm, \psfig]; 1 missing file[qcdparis.sty].
68161 2013-03-17 19:06:52 /9507/hep-ph.9507403 120000[{instit}]; 1 missing file[version2.sty].
68162 2013-03-17 19:06:47 /9507/hep-ph.9507407 2420000[\psfig]; 1 missing file[psfig].
68163 2013-03-17 19:04:50 /9507/hep-ph.9507370 620000[\bi]; 1 missing file[menu95.cls].
68164 2013-03-17 19:04:40 /9507/hep-ph.9507373 380000[\Line, \Photon, \filltype, \Vertex, \ArrowLine, \PhotonArc, \Gluon, \dashline].
68165 2013-03-17 19:04:37 /9507/hep-ph.9507358 9310000[\date].
68166 2013-03-17 19:04:05 /9507/hep-ph.9507361 230000[\rmDelta, \institute]; 1 missing file[fbssuppl.sty].
68167 2013-03-17 19:02:55 /9507/hep-ph.9507356 230000[\bi]; 1 missing file[menu95.cls].
68168 2013-03-17 19:00:57 /9507/hep-ph.9507306 4820000[\psfig]; 1 missing file[psfig].
68169 2013-03-17 19:00:49 /9507/hep-ph.9507325 2410000[\date].
68170 2013-03-17 19:00:27 /9507/hep-ph.9507294 9180000[\@ignoretrue].
68171 2013-03-17 19:00:06 /9507/hep-ph.9507313 150000[\fcaption].
68172 2013-03-17 18:58:53 /9507/hep-ph.9507275 4210000[\rotate].
68173 2013-03-17 18:58:41 /9507/hep-ph.9507290 18390000[\nisi, \VEV, \SMunit, \deflam, \NFC, \master, \sumdiff, \Usinglet, \Bigi, \Liu, \guy, \Allangles, \defpq, \defangle, \BrPa, \endpage, \noCPd, \wolf, \defAB, \nirev, \fourth, \chapter, \niqu, \equitest, \bsn, \ket, \expt, \noCPm, \refout, \LQ, \QSA, \nirr
68174 2013-03-17 18:58:25 /9507/hep-ph.9507277 410000[\tencircw].
68175 2013-03-17 18:54:23 /9507/hep-ph.9507216 1440000[\Line, \Vertex, \ArrowLine, \Photon].
68176 2013-03-17 18:52:57 /9507/hep-ph.9507207 530000[Align, \+, \columns].
68177 2013-03-17 18:52:20 /9507/hep-lat.9507021 230000[\Bbb, \gtrless]; 1 missing file[amssymbols.sty].
68178 2013-03-17 18:52:06 /9507/hep-lat.9507003 14050000[\half, \thanksref, \epsfbox, {frontmatter}, \epsfxsize].
68179 2013-03-17 18:50:51 /9507/hep-ex.9507011 2810000[\epsffileline].
68180 2013-03-17 18:50:14 /9507/hep-ex.9507007 1920000[\epsffileline]; 1 missing file[aipbook.sty].
68181 2013-03-17 18:47:25 /9507/gr-qc.9507020 75160000[\firstfigfalse].
68182 2013-03-17 18:46:54 /9507/gr-qc.9507023 9530000[\nordr, \nordl].
68183 2013-03-17 18:43:56 /9507/gr-qc.9507019 710000[\bezier].
68184 2013-03-17 18:43:15 /9507/dg-ga.9507005 430000[\ltimes, \restriction, \newsymbol].
68185 2013-03-17 18:41:19 /9507/dg-ga.9507002 120000[\arabic].
68186 2013-03-17 18:40:48 /9507/cond-mat.9507132 1850000[\VEC, \dllres, \allp, \relams, \castaing, \defascovv, \assump, \karman, \PHYSREV, \address, \soli, \denvv, \aeqnn, \newform, \vkp, \niceresult, \prandtl, \nopubblock, Align, \envbb, \lvov, \zmean, \endpage, \foot, \epsdeff, \vkhk, \chapter, \frac, \eg, \
68187 2013-03-17 18:40:17 /9507/cond-mat.9507119 320000[{instit}]; 1 missing file[version2.sty].
68188 2013-03-17 18:38:30 /9507/cond-mat.9507099 1120000[\abovecaptionskip, \belowcaptionskip].
68189 2013-03-17 18:37:38 /9507/cond-mat.9507089 310000[{instit}].
68190 2013-03-17 18:37:37 /9507/cond-mat.9507090 310000[{instit}].
68191 2013-03-17 18:37:25 /9507/cond-mat.9507093 030000[\@mkboth]; 1 missing file[cond-mat.9507093.sst].
68192 2013-03-17 18:37:19 /9507/cond-mat.9507092 180000[\footskip, \textwidth, \footheight, \topmargin, \setlength, \headsep, \textheight, \headheight].
68193 2013-03-17 18:37:00 /9507/cond-mat.9507079 130000[\@mkboth]; 1 missing file[cond-mat.9507079.sst].
68194 2013-03-17 18:35:52 /9507/cond-mat.9507069 340000[\theappendix, \psfig]; 1 missing file[psfig].
68195 2013-03-17 18:34:54 /9507/cond-mat.9507050 220000[{instit}]; 1 missing file[version2.sty].
68196 2013-03-17 18:34:48 /9507/cond-mat.9507032 2710000[\alloc@].
68197 2013-03-17 18:34:44 /9507/cond-mat.9507048 6120000[\psfig]; 1 missing file[psfig].
68198 2013-03-17 18:34:39 /9507/cond-mat.9507041 2640000[\psfig]; 1 missing file[psfig].
68199 2013-03-17 18:34:15 /9507/cond-mat.9507039 210000[\delimiter].
68200 2013-03-17 18:34:02 /9507/cond-mat.9507024 110000[\columns].
<<< >>>

[0] [200] [400] [600] [800] [1000] [1200] [1400] [1600] [1800] [2000] [2200] [2400] [2600] [2800] [3000] [3200] [3400] [3600] [3800] [4000] [4200] [4400] [4600] [4800] [5000] [5200] [5400] [5600] [5800] [6000] [6200] [6400] [6600] [6800] [7000] [7200] [7400] [7600] [7800] [8000] [8200] [8400] [8600] [8800] [9000] [9200] [9400] [9600] [9800] [10000] [10200] [10400] [10600] [10800] [11000] [11200] [11400] [11600] [11800] [12000] [12200] [12400] [12600] [12800] [13000] [13200] [13400] [13600] [13800] [14000] [14200] [14400] [14600] [14800] [15000] [15200] [15400] [15600] [15800] [16000] [16200] [16400] [16600] [16800] [17000] [17200] [17400] [17600] [17800] [18000] [18200] [18400] [18600] [18800] [19000] [19200] [19400] [19600] [19800] [20000] [20200] [20400] [20600] [20800] [21000] [21200] [21400] [21600] [21800] [22000] [22200] [22400] [22600] [22800] [23000] [23200] [23400] [23600] [23800] [24000] [24200] [24400] [24600] [24800] [25000] [25200] [25400] [25600] [25800] [26000] [26200] [26400] [26600] [26800] [27000] [27200] [27400] [27600] [27800] [28000] [28200] [28400] [28600] [28800] [29000] [29200] [29400] [29600] [29800] [30000] [30200] [30400] [30600] [30800] [31000] [31200] [31400] [31600] [31800] [32000] [32200] [32400] [32600] [32800] [33000] [33200] [33400] [33600] [33800] [34000] [34200] [34400] [34600] [34800] [35000] [35200] [35400] [35600] [35800] [36000] [36200] [36400] [36600] [36800] [37000] [37200] [37400] [37600] [37800] [38000] [38200] [38400] [38600] [38800] [39000] [39200] [39400] [39600] [39800] [40000] [40200] [40400] [40600] [40800] [41000] [41200] [41400] [41600] [41800] [42000] [42200] [42400] [42600] [42800] [43000] [43200] [43400] [43600] [43800] [44000] [44200] [44400] [44600] [44800] [45000] [45200] [45400] [45600] [45800] [46000] [46200] [46400] [46600] [46800] [47000] [47200] [47400] [47600] [47800] [48000] [48200] [48400] [48600] [48800] [49000] [49200] [49400] [49600] [49800] [50000] [50200] [50400] [50600] [50800] [51000] [51200] [51400] [51600] [51800] [52000] [52200] [52400] [52600] [52800] [53000] [53200] [53400] [53600] [53800] [54000] [54200] [54400] [54600] [54800] [55000] [55200] [55400] [55600] [55800] [56000] [56200] [56400] [56600] [56800] [57000] [57200] [57400] [57600] [57800] [58000] [58200] [58400] [58600] [58800] [59000] [59200] [59400] [59600] [59800] [60000] [60200] [60400] [60600] [60800] [61000] [61200] [61400] [61600] [61800] [62000] [62200] [62400] [62600] [62800] [63000] [63200] [63400] [63600] [63800] [64000] [64200] [64400] [64600] [64800] [65000] [65200] [65400] [65600] [65800] [66000] [66200] [66400] [66600] [66800] [67000] [67200] [67400] [67600] [67800] [68000] [68200] [68400] [68600] [68800] [69000] [69200] [69400] [69600] [69800] [70000] [70200] [70400] [70600] [70800] [71000] [71200] [71400] [71600] [71800] [72000] [72200] [72400] [72600] [72800] [73000] [73200] [73400] [73600] [73800] [74000] [74200] [74400] [74600] [74800] [75000] [75200] [75400] [75600] [75800] [76000] [76200] [76400] [76600] [76800] [77000] [77200] [77400] [77600] [77800] [78000] [78200] [78400] [78600] [78800] [79000] [79200] [79400] [79600] [79800] [80000] [80200] [80400] [80600] [80800] [81000] [81200] [81400] [81600] [81800] [82000] [82200] [82400] [82600] [82800] [83000] [83200] [83400] [83600] [83800] [84000] [84200] [84400] [84600] [84800] [85000] [85200] [85400] [85600] [85800] [86000] [86200] [86400] [86600] [86800] [87000] [87200] [87400] [87600] [87800] [88000] [88200] [88400] [88600] [88800] [89000] [89200] [89400] [89600] [89800] [90000] [90200] [90400] [90600] [90800] [91000] [91200] [91400] [91600] [91800] [92000] [92200] [92400] [92600] [92800] [93000] [93200] [93400] [93600] [93800] [94000] [94200] [94400] [94600] [94800] [95000] [95200] [95400] [95600] [95800] [96000] [96200] [96400] [96600] [96800] [97000] [97200] [97400] [97600] [97800] [98000] [98200] [98400] [98600] [98800] [99000] [99200] [99400] [99600] [99800] [100000] [100200] [100400] [100600] [100800] [101000] [101200] [101400] [101600] [101800] [102000] [102200] [102400] [102600] [102800] [103000] [103200] [103400] [103600] [103800] [104000] [104200] [104400] [104600] [104800] [105000] [105200] [105400] [105600] [105800] [106000] [106200] [106400] [106600] [106800] [107000] [107200] [107400] [107600] [107800] [108000] [108200] [108400] [108600] [108800] [109000] [109200] [109400] [109600] [109800] [110000] [110200] [110400] [110600] [110800] [111000] [111200] [111400] [111600] [111800] [112000] [112200] [112400] [112600] [112800] [113000] [113200] [113400] [113600] [113800] [114000] [114200] [114400] [114600] [114800] [115000] [115200] [115400] [115600] [115800] [116000] [116200] [116400] [116600] [116800] [117000] [117200] [117400] [117600] [117800] [118000] [118200] [118400] [118600] [118800] [119000] [119200] [119400] [119600] [119800] [120000] [120200] [120400] [120600] [120800] [121000] [121200] [121400] [121600] [121800] [122000] [122200] [122400] [122600] [122800] [123000] [123200] [123400] [123600] [123800] [124000] [124200] [124400] [124600] [124800] [125000] [125200] [125400] [125600] [125800] [126000] [126200] [126400] [126600] [126800] [127000] [127200] [127400] [127600] [127800] [128000] [128200] [128400] [128600] [128800] [129000] [129200] [129400] [129600] [129800] [130000] [130200] [130400] [130600] [130800] [131000] [131200] [131400] [131600] [131800] [132000] [132200] [132400] [132600] [132800] [133000] [133200] [133400] [133600] [133800] [134000] [134200] [134400] [134600] [134800] [135000] [135200] [135400] [135600] [135800] [136000] [136200] [136400] [136600] [136800] [137000] [137200] [137400] [137600] [137800] [138000] [138200] [138400] [138600] [138800] [139000] [139200] [139400] [139600] [139800] [140000] [140200] [140400] [140600] [140800] [141000] [141200] [141400] [141600] [141800] [142000] [142200] [142400] [142600] [142800] [143000] [143200] [143400] [143600] [143800] [144000] [144200] [144400] [144600] [144800] [145000] [145200] [145400] [145600] [145800] [146000] [146200] [146400] [146600] [146800] [147000] [147200] [147400] [147600] [147800] [148000] [148200] [148400] [148600] [148800] [149000] [149200] [149400] [149600] [149800] [150000] [150200] [150400] [150600] [150800] [151000] [151200] [151400] [151600] [151800] [152000] [152200] [152400] [152600] [152800] [153000] [153200] [153400] [153600] [153800] [154000] [154200] [154400] [154600] [154800] [155000] [155200] [155400] [155600] [155800] [156000] [156200] [156400] [156600] [156800] [157000] [157200] [157400] [157600] [157800] [158000] [158200] [158400] [158600] [158800] [159000] [159200] [159400] [159600] [159800] [160000] [160200] [160400] [160600] [160800] [161000] [161200] [161400] [161600] [161800] [162000] [162200] [162400] [162600] [162800] [163000] [163200] [163400] [163600] [163800] [164000] [164200] [164400] [164600]
 
  The service has been written by
Heinrich Stamerjohanns